Time,TemperatureF,DewpointF,PressureIn,WindDirection,WindDirectionDegrees,WindSpeedMPH,WindSpeedGustMPH,Humidity,HourlyPrecipIn,Conditions,Clouds,dailyrainin,SoftwareType,DateUTC
2013-02-12 00:03:00,17.4,8.0,26.84,WNW,292,0.0,0.0,66,0.00,,,0.00,VWS V14.01,2013-02-12 07:03:00,
2013-02-12 00:08:00,17.4,8.0,26.85,WNW,292,0.0,0.0,66,0.00,,,0.00,VWS V14.01,2013-02-12 07:08:00,
2013-02-12 00:13:00,17.4,8.0,26.85,WNW,292,0.0,0.0,66,0.00,,,0.00,VWS V14.01,2013-02-12 07:13:00,
2013-02-12 00:18:00,17.4,8.0,26.85,WNW,292,0.0,0.0,66,0.00,,,0.00,VWS V14.01,2013-02-12 07:18:00,
2013-02-12 00:23:00,17.4,8.0,26.85,NW,315,0.0,0.0,66,0.00,,,0.00,VWS V14.01,2013-02-12 07:23:00,
2013-02-12 00:28:00,17.4,8.0,26.84,NW,315,0.0,0.0,66,0.00,,,0.00,VWS V14.01,2013-02-12 07:28:00,
2013-02-12 00:33:00,17.4,8.0,26.84,NW,315,0.0,0.0,66,0.00,,,0.00,VWS V14.01,2013-02-12 07:33:00,
2013-02-12 00:38:00,17.4,8.0,26.84,NW,315,0.0,0.0,66,0.00,,,0.00,VWS V14.01,2013-02-12 07:38:00,
2013-02-12 00:43:00,17.4,8.0,26.83,NW,315,0.0,0.0,66,0.00,,,0.00,VWS V14.01,2013-02-12 07:43:00,
2013-02-12 00:48:00,17.4,8.0,26.84,NW,315,0.0,0.0,66,0.00,,,0.00,VWS V14.01,2013-02-12 07:48:00,
2013-02-12 00:53:00,17.4,8.0,26.83,NW,315,0.0,0.0,66,0.00,,,0.00,VWS V14.01,2013-02-12 07:53:00,
2013-02-12 00:58:00,17.7,8.3,26.83,NW,315,0.0,0.0,66,0.00,,,0.00,VWS V14.01,2013-02-12 07:58:00,
2013-02-12 01:03:00,17.7,8.3,26.83,WNW,292,0.0,0.0,66,0.00,,,0.00,VWS V14.01,2013-02-12 08:03:00,
2013-02-12 01:08:00,17.9,8.5,26.83,WNW,292,0.0,0.0,66,0.00,,,0.00,VWS V14.01,2013-02-12 08:08:00,
2013-02-12 01:13:00,18.3,8.9,26.83,WNW,292,0.0,0.0,66,0.00,,,0.00,VWS V14.01,2013-02-12 08:13:00,
2013-02-12 01:18:00,18.3,8.9,26.83,NW,315,0.0,0.0,66,0.00,,,0.00,VWS V14.01,2013-02-12 08:18:00,
2013-02-12 01:23:00,18.3,8.9,26.83,NW,315,0.0,0.0,66,0.00,,,0.00,VWS V14.01,2013-02-12 08:23:00,
2013-02-12 01:28:00,18.6,9.1,26.83,NW,315,0.0,0.0,66,0.00,,,0.00,VWS V14.01,2013-02-12 08:28:00,
2013-02-12 01:33:00,18.8,9.3,26.83,NW,315,0.0,0.0,66,0.00,,,0.00,VWS V14.01,2013-02-12 08:33:00,
2013-02-12 01:38:00,19.0,9.2,26.83,NW,315,0.0,0.0,65,0.00,,,0.00,VWS V14.01,2013-02-12 08:38:00,
2013-02-12 01:44:00,19.2,9.4,26.83,NW,315,0.0,0.0,65,0.00,,,0.00,VWS V14.01,2013-02-12 08:44:00,
2013-02-12 01:49:00,19.2,9.4,26.82,NW,315,0.0,0.0,65,0.00,,,0.00,VWS V14.01,2013-02-12 08:49:00,
2013-02-12 01:54:00,19.2,9.4,26.83,WNW,292,0.0,0.0,65,0.00,,,0.00,VWS V14.01,2013-02-12 08:54:00,
2013-02-12 01:59:00,19.2,9.4,26.83,West,270,0.0,0.0,65,0.00,,,0.00,VWS V14.01,2013-02-12 08:59:00,
2013-02-12 02:04:00,19.5,9.7,26.82,West,270,0.0,0.0,65,0.00,,,0.00,VWS V14.01,2013-02-12 09:04:00,
2013-02-12 02:09:00,19.7,9.9,26.82,SW,225,0.0,0.0,65,0.00,,,0.00,VWS V14.01,2013-02-12 09:09:00,
2013-02-12 02:14:00,20.1,10.2,26.82,WSW,248,0.0,0.0,65,0.00,,,0.00,VWS V14.01,2013-02-12 09:14:00,
2013-02-12 02:19:00,20.3,10.1,26.82,NW,315,0.0,0.0,64,0.00,,,0.00,VWS V14.01,2013-02-12 09:19:00,
2013-02-12 02:24:00,20.4,10.2,26.82,NW,315,0.0,0.0,64,0.00,,,0.00,VWS V14.01,2013-02-12 09:24:00,
2013-02-12 02:29:00,20.4,10.2,26.82,West,270,0.0,0.0,64,0.00,,,0.00,VWS V14.01,2013-02-12 09:29:00,
2013-02-12 02:34:00,20.8,10.2,26.81,West,270,0.0,2.4,63,0.00,,,0.00,VWS V14.01,2013-02-12 09:34:00,
2013-02-12 02:39:00,21.0,10.4,26.82,West,270,0.0,2.4,63,0.00,,,0.00,VWS V14.01,2013-02-12 09:39:00,
2013-02-12 02:44:00,21.3,10.7,26.82,WNW,292,0.0,2.4,63,0.00,,,0.00,VWS V14.01,2013-02-12 09:44:00,
2013-02-12 02:49:00,21.3,10.3,26.82,NW,315,0.0,0.0,62,0.00,,,0.00,VWS V14.01,2013-02-12 09:49:00,
2013-02-12 02:54:00,21.2,10.2,26.82,NW,315,0.0,0.0,62,0.00,,,0.00,VWS V14.01,2013-02-12 09:54:00,
2013-02-12 02:59:00,21.0,10.0,26.82,NNW,338,0.0,0.0,62,0.00,,,0.00,VWS V14.01,2013-02-12 09:59:00,
2013-02-12 03:04:00,20.8,9.9,26.82,NNW,338,0.0,0.0,62,0.00,,,0.00,VWS V14.01,2013-02-12 10:04:00,
2013-02-12 03:09:00,20.3,9.4,26.82,NNW,338,0.0,0.0,62,0.00,,,0.00,VWS V14.01,2013-02-12 10:09:00,
2013-02-12 03:14:00,20.1,9.2,26.82,NNW,338,0.0,0.0,62,0.00,,,0.00,VWS V14.01,2013-02-12 10:14:00,
2013-02-12 03:19:00,19.5,8.6,26.82,NNW,338,0.0,0.0,62,0.00,,,0.00,VWS V14.01,2013-02-12 10:19:00,
2013-02-12 03:24:00,19.2,8.3,26.82,NNW,338,0.0,0.0,62,0.00,,,0.00,VWS V14.01,2013-02-12 10:24:00,
2013-02-12 03:29:00,19.0,8.1,26.81,NNW,338,0.0,0.0,62,0.00,,,0.00,VWS V14.01,2013-02-12 10:29:00,
2013-02-12 03:34:00,18.6,7.8,26.82,NNW,338,0.0,0.0,62,0.00,,,0.00,VWS V14.01,2013-02-12 10:34:00,
2013-02-12 03:40:00,18.3,7.5,26.82,NNW,338,0.0,0.0,62,0.00,,,0.00,VWS V14.01,2013-02-12 10:40:00,
2013-02-12 03:45:00,18.1,7.3,26.82,NNW,338,0.0,0.0,62,0.00,,,0.00,VWS V14.01,2013-02-12 10:45:00,
2013-02-12 03:50:00,17.7,7.3,26.82,NNW,338,0.0,0.0,63,0.00,,,0.00,VWS V14.01,2013-02-12 10:50:00,
2013-02-12 03:55:00,17.4,7.0,26.82,NNW,338,0.0,0.0,63,0.00,,,0.00,VWS V14.01,2013-02-12 10:55:00,
2013-02-12 04:00:00,17.2,6.8,26.82,NNW,338,0.0,0.0,63,0.00,,,0.00,VWS V14.01,2013-02-12 11:00:00,
2013-02-12 04:05:00,16.8,6.4,26.82,NNW,338,0.0,0.0,63,0.00,,,0.00,VWS V14.01,2013-02-12 11:05:00,
2013-02-12 04:10:00,16.8,6.4,26.82,NNW,338,0.0,0.0,63,0.00,,,0.00,VWS V14.01,2013-02-12 11:10:00,
2013-02-12 04:15:00,16.7,6.3,26.82,NNW,338,0.0,0.0,63,0.00,,,0.00,VWS V14.01,2013-02-12 11:15:00,
2013-02-12 04:20:00,16.3,6.3,26.82,NW,315,0.0,0.0,64,0.00,,,0.00,VWS V14.01,2013-02-12 11:20:00,
2013-02-12 04:25:00,16.3,6.3,26.83,NW,315,0.0,0.0,64,0.00,,,0.00,VWS V14.01,2013-02-12 11:25:00,
2013-02-12 04:30:00,16.3,6.6,26.83,NW,315,0.0,0.0,65,0.00,,,0.00,VWS V14.01,2013-02-12 11:30:00,
2013-02-12 04:35:00,16.1,6.4,26.83,NW,315,0.0,0.0,65,0.00,,,0.00,VWS V14.01,2013-02-12 11:35:00,
2013-02-12 04:40:00,15.9,6.2,26.83,NW,315,0.0,0.0,65,0.00,,,0.00,VWS V14.01,2013-02-12 11:40:00,
2013-02-12 04:45:00,15.9,6.2,26.83,NW,315,0.0,0.0,65,0.00,,,0.00,VWS V14.01,2013-02-12 11:45:00,
2013-02-12 04:50:00,15.8,6.1,26.83,WSW,248,0.0,0.0,65,0.00,,,0.00,VWS V14.01,2013-02-12 11:50:00,
2013-02-12 04:55:00,15.6,5.9,26.83,WSW,248,0.0,0.0,65,0.00,,,0.00,VWS V14.01,2013-02-12 11:55:00,
2013-02-12 05:00:00,15.4,5.8,26.83,WSW,248,0.0,0.0,65,0.00,,,0.00,VWS V14.01,2013-02-12 12:00:00,
2013-02-12 05:05:00,15.0,5.4,26.83,WSW,248,0.0,0.0,65,0.00,,,0.00,VWS V14.01,2013-02-12 12:05:00,
2013-02-12 05:10:00,14.9,5.3,26.84,WSW,248,0.0,0.0,65,0.00,,,0.00,VWS V14.01,2013-02-12 12:10:00,
2013-02-12 05:15:00,14.7,5.1,26.83,West,270,0.0,0.0,65,0.00,,,0.00,VWS V14.01,2013-02-12 12:15:00,
2013-02-12 05:20:00,14.7,5.4,26.83,West,270,0.0,0.0,66,0.00,,,0.00,VWS V14.01,2013-02-12 12:20:00,
2013-02-12 05:25:00,14.5,5.2,26.83,West,270,0.0,0.0,66,0.00,,,0.00,VWS V14.01,2013-02-12 12:25:00,
2013-02-12 05:30:00,14.3,5.0,26.83,West,270,0.0,0.0,66,0.00,,,0.00,VWS V14.01,2013-02-12 12:30:00,
2013-02-12 05:35:00,14.3,5.0,26.83,West,270,0.0,0.0,66,0.00,,,0.00,VWS V14.01,2013-02-12 12:35:00,
2013-02-12 05:40:00,14.1,4.8,26.83,West,270,0.0,0.0,66,0.00,,,0.00,VWS V14.01,2013-02-12 12:40:00,
2013-02-12 05:45:00,14.1,4.8,26.83,West,270,0.0,0.0,66,0.00,,,0.00,VWS V14.01,2013-02-12 12:45:00,
2013-02-12 05:51:00,14.1,4.8,26.83,West,270,0.0,0.0,66,0.00,,,0.00,VWS V14.01,2013-02-12 12:51:00,
2013-02-12 05:56:00,14.1,4.8,26.83,West,270,0.0,0.0,66,0.00,,,0.00,VWS V14.01,2013-02-12 12:56:00,
2013-02-12 06:01:00,14.1,4.8,26.83,West,270,0.0,0.0,66,0.00,,,0.00,VWS V14.01,2013-02-12 13:01:00,
2013-02-12 06:06:00,14.1,5.2,26.83,West,270,0.0,0.0,67,0.00,,,0.00,VWS V14.01,2013-02-12 13:06:00,
2013-02-12 06:11:00,14.5,5.6,26.83,West,270,0.0,0.0,67,0.00,,,0.00,VWS V14.01,2013-02-12 13:11:00,
2013-02-12 06:16:00,14.7,6.1,26.83,West,270,0.0,0.0,68,0.00,,,0.00,VWS V14.01,2013-02-12 13:16:00,
2013-02-12 06:21:00,14.7,6.1,26.83,West,270,0.0,0.0,68,0.00,,,0.00,VWS V14.01,2013-02-12 13:21:00,
2013-02-12 06:26:00,15.0,6.4,26.83,West,270,0.0,0.0,68,0.00,,,0.00,VWS V14.01,2013-02-12 13:26:00,
2013-02-12 06:31:00,15.4,7.1,26.83,West,270,0.0,0.0,69,0.00,,,0.00,VWS V14.01,2013-02-12 13:31:00,
2013-02-12 06:36:00,15.6,7.3,26.83,West,270,0.0,0.0,69,0.00,,,0.00,VWS V14.01,2013-02-12 13:36:00,
2013-02-12 06:41:00,15.9,7.5,26.83,West,270,0.0,0.0,69,0.00,,,0.00,VWS V14.01,2013-02-12 13:41:00,
2013-02-12 06:46:00,16.1,7.7,26.84,West,270,0.0,0.0,69,0.00,,,0.00,VWS V14.01,2013-02-12 13:46:00,
2013-02-12 06:51:00,16.3,7.9,26.83,West,270,0.0,0.0,69,0.00,,,0.00,VWS V14.01,2013-02-12 13:51:00,
2013-02-12 06:56:00,16.3,7.9,26.83,West,270,0.0,0.0,69,0.00,,,0.00,VWS V14.01,2013-02-12 13:56:00,
2013-02-12 07:01:00,16.7,8.3,26.84,West,270,0.0,0.0,69,0.00,,,0.00,VWS V14.01,2013-02-12 14:01:00,
2013-02-12 07:06:00,17.4,9.3,26.84,West,270,0.0,0.0,70,0.00,,,0.00,VWS V14.01,2013-02-12 14:06:00,
2013-02-12 07:11:00,18.3,10.5,26.83,West,270,0.0,0.0,71,0.00,,,0.00,VWS V14.01,2013-02-12 14:11:00,
2013-02-12 07:16:00,19.2,11.4,26.84,West,270,0.0,0.0,71,0.00,,,0.00,VWS V14.01,2013-02-12 14:16:00,
2013-02-12 07:21:00,19.4,11.6,26.84,East,90,0.0,0.0,71,0.00,,,0.00,VWS V14.01,2013-02-12 14:21:00,
2013-02-12 07:26:00,19.5,11.3,26.84,SE,135,0.0,0.0,70,0.00,,,0.00,VWS V14.01,2013-02-12 14:26:00,
2013-02-12 07:31:00,19.7,11.5,26.84,South,180,0.0,0.0,70,0.00,,,0.00,VWS V14.01,2013-02-12 14:31:00,
2013-02-12 07:36:00,20.8,12.9,26.84,West,270,0.0,0.0,71,0.00,,,0.00,VWS V14.01,2013-02-12 14:36:00,
2013-02-12 07:41:00,23.1,15.4,26.84,West,270,0.0,0.0,72,0.00,,,0.00,VWS V14.01,2013-02-12 14:41:00,
2013-02-12 07:46:00,25.3,16.6,26.84,West,270,0.0,0.0,69,0.00,,,0.00,VWS V14.01,2013-02-12 14:46:00,
2013-02-12 07:51:00,28.2,18.0,26.84,WNW,292,0.0,0.0,65,0.00,,,0.00,VWS V14.01,2013-02-12 14:51:00,
2013-02-12 07:56:00,30.9,19.8,26.85,WNW,292,0.0,0.0,63,0.00,,,0.00,VWS V14.01,2013-02-12 14:56:00,
2013-02-12 08:01:00,33.2,20.8,26.85,East,90,0.0,0.0,60,0.00,,,0.00,VWS V14.01,2013-02-12 15:01:00,
2013-02-12 08:06:00,32.5,19.0,26.85,East,90,0.0,0.0,57,0.00,,,0.00,VWS V14.01,2013-02-12 15:06:00,
2013-02-12 08:11:00,32.1,19.0,26.85,East,90,0.0,0.0,58,0.00,,,0.00,VWS V14.01,2013-02-12 15:11:00,
2013-02-12 08:16:00,33.8,21.0,26.85,SE,135,0.0,0.0,59,0.00,,,0.00,VWS V14.01,2013-02-12 15:16:00,
2013-02-12 08:21:00,38.6,24.3,26.85,SE,135,0.0,0.0,56,0.00,,,0.00,VWS V14.01,2013-02-12 15:21:00,
2013-02-12 08:27:00,41.5,26.1,26.86,SE,135,0.0,0.0,54,0.00,,,0.00,VWS V14.01,2013-02-12 15:27:00,
2013-02-12 08:32:00,43.8,26.4,26.86,SE,135,0.0,0.0,50,0.00,,,0.00,VWS V14.01,2013-02-12 15:32:00,
2013-02-12 08:37:00,47.3,27.6,26.86,South,180,0.0,0.0,46,0.00,,,0.00,VWS V14.01,2013-02-12 15:37:00,
2013-02-12 08:42:00,49.1,28.1,26.86,South,180,0.0,0.0,44,0.00,,,0.00,VWS V14.01,2013-02-12 15:42:00,
2013-02-12 08:47:00,50.1,27.3,26.86,SE,135,0.0,0.0,41,0.00,,,0.00,VWS V14.01,2013-02-12 15:47:00,
2013-02-12 08:52:00,51.4,26.7,26.86,East,90,0.0,0.0,38,0.00,,,0.00,VWS V14.01,2013-02-12 15:52:00,
2013-02-12 08:57:00,51.9,26.5,26.86,SE,135,0.0,0.0,37,0.00,,,0.00,VWS V14.01,2013-02-12 15:57:00,
2013-02-12 09:02:00,51.6,25.5,26.86,SE,135,0.0,0.0,36,0.00,,,0.00,VWS V14.01,2013-02-12 16:02:00,
2013-02-12 09:07:00,50.9,24.9,26.86,SSE,158,0.0,0.0,36,0.00,,,0.00,VWS V14.01,2013-02-12 16:07:00,
2013-02-12 09:12:00,50.3,24.4,26.86,SSE,158,0.0,0.0,36,0.00,,,0.00,VWS V14.01,2013-02-12 16:12:00,
2013-02-12 09:17:00,50.1,24.9,26.86,SSW,202,0.0,0.0,37,0.00,,,0.00,VWS V14.01,2013-02-12 16:17:00,
2013-02-12 09:22:00,50.9,24.9,26.86,ESE,112,0.0,0.0,36,0.00,,,0.00,VWS V14.01,2013-02-12 16:22:00,
2013-02-12 09:27:00,52.8,25.9,26.86,SSE,158,0.0,0.0,35,0.00,,,0.00,VWS V14.01,2013-02-12 16:27:00,
2013-02-12 09:32:00,53.4,25.8,26.86,SSE,158,0.0,0.0,34,0.00,,,0.00,VWS V14.01,2013-02-12 16:32:00,
2013-02-12 09:37:00,54.1,26.4,26.86,South,180,0.0,0.0,34,0.00,,,0.00,VWS V14.01,2013-02-12 16:37:00,
2013-02-12 09:42:00,54.8,26.3,26.86,NNE,22,0.0,0.0,33,0.00,,,0.00,VWS V14.01,2013-02-12 16:42:00,
2013-02-12 09:47:00,56.4,26.9,26.86,SW,225,0.0,0.0,32,0.00,,,0.00,VWS V14.01,2013-02-12 16:47:00,
2013-02-12 09:52:00,57.9,27.5,26.86,WSW,248,0.0,0.0,31,0.00,,,0.00,VWS V14.01,2013-02-12 16:52:00,
2013-02-12 09:57:00,59.1,26.9,26.86,South,180,0.0,0.0,29,0.00,,,0.00,VWS V14.01,2013-02-12 16:57:00,
2013-02-12 10:02:00,61.8,28.4,26.86,WSW,248,0.0,0.0,28,0.00,,,0.00,VWS V14.01,2013-02-12 17:02:00,
2013-02-12 10:07:00,63.5,29.0,26.86,WNW,292,0.0,0.0,27,0.00,,,0.00,VWS V14.01,2013-02-12 17:07:00,
2013-02-12 10:13:00,66.3,30.4,26.86,West,270,0.0,0.0,26,0.00,,,0.00,VWS V14.01,2013-02-12 17:13:00,
2013-02-12 10:18:00,68.1,31.0,26.86,WNW,292,0.0,0.0,25,0.00,,,0.00,VWS V14.01,2013-02-12 17:18:00,
2013-02-12 10:23:00,69.9,31.5,26.86,NW,315,0.0,0.0,24,0.00,,,0.00,VWS V14.01,2013-02-12 17:23:00,
2013-02-12 10:28:00,71.7,30.9,26.86,NW,315,0.0,0.0,22,0.00,,,0.00,VWS V14.01,2013-02-12 17:28:00,
2013-02-12 10:33:00,73.0,30.8,26.86,NNE,22,0.0,0.0,21,0.00,,,0.00,VWS V14.01,2013-02-12 17:33:00,
2013-02-12 10:38:00,74.1,31.7,26.86,WNW,292,1.5,1.5,21,0.00,,,0.00,VWS V14.01,2013-02-12 17:38:00,
2013-02-12 10:43:00,73.5,27.4,26.86,NNW,338,8.0,10.5,18,0.00,,,0.00,VWS V14.01,2013-02-12 17:43:00,
2013-02-12 10:48:00,70.1,26.0,26.86,North,0,4.2,4.2,19,0.00,,,0.00,VWS V14.01,2013-02-12 17:48:00,
2013-02-12 10:53:00,68.3,25.7,26.86,NW,315,9.3,9.3,20,0.00,,,0.00,VWS V14.01,2013-02-12 17:53:00,
2013-02-12 10:58:00,66.7,24.4,26.86,NNW,338,6.9,12.3,20,0.00,,,0.00,VWS V14.01,2013-02-12 17:58:00,
2013-02-12 11:03:00,66.2,26.3,26.86,NNW,338,15.6,15.6,22,0.00,,,0.00,VWS V14.01,2013-02-12 18:03:00,
2013-02-12 11:08:00,65.3,25.5,26.86,NW,315,7.1,15.6,22,0.00,,,0.00,VWS V14.01,2013-02-12 18:08:00,
2013-02-12 11:13:00,64.5,24.8,26.86,West,270,8.5,18.1,22,0.00,,,0.00,VWS V14.01,2013-02-12 18:13:00,
2013-02-12 11:18:00,63.3,24.9,26.86,NW,315,10.2,10.5,23,0.00,,,0.00,VWS V14.01,2013-02-12 18:18:00,
2013-02-12 11:23:00,61.5,24.4,26.86,North,0,12.9,15.6,24,0.00,,,0.00,VWS V14.01,2013-02-12 18:23:00,
2013-02-12 11:28:00,61.3,24.2,26.86,NNW,338,18.5,18.5,24,0.00,,,0.00,VWS V14.01,2013-02-12 18:28:00,
2013-02-12 11:33:00,60.0,23.1,26.85,NNW,338,13.4,19.0,24,0.00,,,0.00,VWS V14.01,2013-02-12 18:33:00,
2013-02-12 11:38:00,57.7,23.1,26.85,NW,315,15.6,19.0,26,0.00,,,0.00,VWS V14.01,2013-02-12 18:38:00,
2013-02-12 11:43:00,56.8,23.2,26.85,NNE,22,10.0,19.0,27,0.00,,,0.00,VWS V14.01,2013-02-12 18:43:00,
2013-02-12 11:48:00,55.2,22.7,26.85,NNW,338,16.5,16.5,28,0.00,,,0.00,VWS V14.01,2013-02-12 18:48:00,
2013-02-12 11:53:00,53.2,21.8,26.85,NNW,338,12.9,16.5,29,0.00,,,0.00,VWS V14.01,2013-02-12 18:53:00,
2013-02-12 11:59:00,51.9,22.2,26.85,North,0,12.0,16.5,31,0.00,,,0.00,VWS V14.01,2013-02-12 18:59:00,
2013-02-12 12:04:00,50.9,22.1,26.84,North,0,14.5,14.5,32,0.00,,,0.00,VWS V14.01,2013-02-12 19:04:00,
2013-02-12 12:09:00,50.0,21.3,26.84,NE,45,10.0,21.9,32,0.00,,,0.00,VWS V14.01,2013-02-12 19:09:00,
2013-02-12 12:14:00,49.6,21.7,26.84,NNE,22,10.9,21.9,33,0.00,,,0.00,VWS V14.01,2013-02-12 19:14:00,
2013-02-12 12:19:00,49.2,22.0,26.84,NW,315,15.8,15.8,34,0.00,,,0.00,VWS V14.01,2013-02-12 19:19:00,
2013-02-12 12:24:00,48.9,21.8,26.84,NNW,338,7.8,15.8,34,0.00,,,0.00,VWS V14.01,2013-02-12 19:24:00,
2013-02-12 12:29:00,49.1,22.0,26.84,North,0,14.9,19.6,34,0.00,,,0.00,VWS V14.01,2013-02-12 19:29:00,
2013-02-12 12:34:00,49.6,22.4,26.83,NE,45,8.7,15.2,34,0.00,,,0.00,VWS V14.01,2013-02-12 19:34:00,
2013-02-12 12:39:00,49.6,22.4,26.84,NNW,338,13.6,15.2,34,0.00,,,0.00,VWS V14.01,2013-02-12 19:39:00,
2013-02-12 12:44:00,49.6,22.4,26.84,NNW,338,11.4,15.2,34,0.00,,,0.00,VWS V14.01,2013-02-12 19:44:00,
2013-02-12 12:49:00,49.6,22.4,26.83,NNW,338,9.1,11.4,34,0.00,,,0.00,VWS V14.01,2013-02-12 19:49:00,
2013-02-12 12:54:00,49.2,22.0,26.83,North,0,11.6,11.6,34,0.00,,,0.00,VWS V14.01,2013-02-12 19:54:00,
2013-02-12 12:59:00,49.4,22.2,26.83,North,0,11.4,16.1,34,0.00,,,0.00,VWS V14.01,2013-02-12 19:59:00,
2013-02-12 13:04:00,49.6,22.4,26.83,NW,315,15.8,15.8,34,0.00,,,0.00,VWS V14.01,2013-02-12 20:04:00,
2013-02-12 13:09:00,49.4,22.2,26.83,NW,315,11.8,15.8,34,0.00,,,0.00,VWS V14.01,2013-02-12 20:09:00,
2013-02-12 13:14:00,48.9,21.8,26.83,WNW,292,10.9,16.7,34,0.00,,,0.00,VWS V14.01,2013-02-12 20:14:00,
2013-02-12 13:19:00,48.9,21.8,26.82,NW,315,10.2,10.9,34,0.00,,,0.00,VWS V14.01,2013-02-12 20:19:00,
2013-02-12 13:24:00,48.7,21.6,26.82,North,0,10.9,10.9,34,0.00,,,0.00,VWS V14.01,2013-02-12 20:24:00,
2013-02-12 13:30:00,48.0,21.0,26.82,NNE,22,4.2,11.8,34,0.00,,,0.00,VWS V14.01,2013-02-12 20:30:00,
2013-02-12 13:35:00,47.8,20.8,26.82,North,0,11.8,11.8,34,0.00,,,0.00,VWS V14.01,2013-02-12 20:35:00,
2013-02-12 13:40:00,47.4,20.5,26.82,NW,315,10.2,11.8,34,0.00,,,0.00,VWS V14.01,2013-02-12 20:40:00,
2013-02-12 13:45:00,47.4,21.1,26.82,NNW,338,12.0,12.0,35,0.00,,,0.00,VWS V14.01,2013-02-12 20:45:00,
2013-02-12 13:50:00,48.0,21.0,26.82,NW,315,7.6,16.1,34,0.00,,,0.00,VWS V14.01,2013-02-12 20:50:00,
2013-02-12 13:55:00,48.5,21.4,26.82,NE,45,14.9,16.1,34,0.00,,,0.00,VWS V14.01,2013-02-12 20:55:00,
2013-02-12 14:00:00,48.9,21.1,26.82,NNE,22,12.9,16.1,33,0.00,,,0.00,VWS V14.01,2013-02-12 21:00:00,
2013-02-12 14:05:00,49.1,21.3,26.82,NNW,338,20.1,20.1,33,0.00,,,0.00,VWS V14.01,2013-02-12 21:05:00,
2013-02-12 14:10:00,48.9,21.1,26.82,North,0,20.3,20.3,33,0.00,,,0.00,VWS V14.01,2013-02-12 21:10:00,
2013-02-12 14:15:00,48.7,20.9,26.82,North,0,8.7,20.3,33,0.00,,,0.00,VWS V14.01,2013-02-12 21:15:00,
2013-02-12 14:20:00,48.5,20.7,26.82,NNW,338,10.2,10.2,33,0.00,,,0.00,VWS V14.01,2013-02-12 21:20:00,
2013-02-12 14:25:00,48.5,20.7,26.82,NW,315,10.7,10.7,33,0.00,,,0.00,VWS V14.01,2013-02-12 21:25:00,
2013-02-12 14:30:00,48.5,20.7,26.82,NW,315,10.2,10.7,33,0.00,,,0.00,VWS V14.01,2013-02-12 21:30:00,
2013-02-12 14:35:00,48.3,20.5,26.82,North,0,5.5,11.8,33,0.00,,,0.00,VWS V14.01,2013-02-12 21:35:00,
2013-02-12 14:40:00,48.3,20.5,26.82,North,0,13.1,13.1,33,0.00,,,0.00,VWS V14.01,2013-02-12 21:40:00,
2013-02-12 14:45:00,48.0,20.3,26.82,NNW,338,6.9,6.9,33,0.00,,,0.00,VWS V14.01,2013-02-12 21:45:00,
2013-02-12 14:50:00,47.8,20.8,26.82,North,0,10.2,10.2,34,0.00,,,0.00,VWS V14.01,2013-02-12 21:50:00,
2013-02-12 14:55:00,47.8,20.1,26.82,NW,315,5.5,10.2,33,0.00,,,0.00,VWS V14.01,2013-02-12 21:55:00,
2013-02-12 15:00:00,47.4,20.5,26.82,North,0,8.7,8.7,34,0.00,,,0.00,VWS V14.01,2013-02-12 22:00:00,
2013-02-12 15:05:00,47.3,20.4,26.82,NNW,338,8.9,10.2,34,0.00,,,0.00,VWS V14.01,2013-02-12 22:05:00,
2013-02-12 15:11:00,46.9,20.0,26.81,NNE,22,9.1,11.1,34,0.00,,,0.00,VWS V14.01,2013-02-12 22:11:00,
2013-02-12 15:16:00,46.7,20.5,26.81,NW,315,7.1,7.1,35,0.00,,,0.00,VWS V14.01,2013-02-12 22:16:00,
2013-02-12 15:21:00,46.2,20.1,26.81,North,0,4.6,12.7,35,0.00,,,0.00,VWS V14.01,2013-02-12 22:21:00,
2013-02-12 15:26:00,46.0,19.9,26.82,NNW,338,10.2,12.7,35,0.00,,,0.00,VWS V14.01,2013-02-12 22:26:00,
2013-02-12 15:31:00,45.8,20.4,26.82,NNW,338,14.3,14.3,36,0.00,,,0.00,VWS V14.01,2013-02-12 22:31:00,
2013-02-12 15:36:00,45.3,19.9,26.81,NNW,338,12.3,16.7,36,0.00,,,0.00,VWS V14.01,2013-02-12 22:36:00,
2013-02-12 15:41:00,44.9,19.6,26.81,NW,315,13.6,16.7,36,0.00,,,0.00,VWS V14.01,2013-02-12 22:41:00,
2013-02-12 15:46:00,44.4,19.8,26.82,NNE,22,10.7,18.1,37,0.00,,,0.00,VWS V14.01,2013-02-12 22:46:00,
2013-02-12 15:51:00,44.4,19.8,26.82,North,0,8.5,18.1,37,0.00,,,0.00,VWS V14.01,2013-02-12 22:51:00,
2013-02-12 15:56:00,44.0,20.0,26.82,North,0,20.3,20.3,38,0.00,,,0.00,VWS V14.01,2013-02-12 22:56:00,
2013-02-12 16:01:00,43.5,19.6,26.83,North,0,12.9,12.9,38,0.00,,,0.00,VWS V14.01,2013-02-12 23:01:00,
2013-02-12 16:06:00,42.9,19.1,26.83,West,270,10.2,15.6,38,0.00,,,0.00,VWS V14.01,2013-02-12 23:06:00,
2013-02-12 16:11:00,42.4,18.6,26.82,NNW,338,15.2,15.6,38,0.00,,,0.00,VWS V14.01,2013-02-12 23:11:00,
2013-02-12 16:16:00,41.9,18.8,26.83,NNW,338,9.8,9.8,39,0.00,,,0.00,VWS V14.01,2013-02-12 23:16:00,
2013-02-12 16:21:00,41.5,18.4,26.83,NNW,338,9.6,10.5,39,0.00,,,0.00,VWS V14.01,2013-02-12 23:21:00,
2013-02-12 16:26:00,41.3,18.8,26.83,NW,315,11.8,11.8,40,0.00,,,0.00,VWS V14.01,2013-02-12 23:26:00,
2013-02-12 16:31:00,41.0,18.5,26.83,North,0,9.6,14.3,40,0.00,,,0.00,VWS V14.01,2013-02-12 23:31:00,
2013-02-12 16:36:00,40.8,18.9,26.83,North,0,12.0,14.3,41,0.00,,,0.00,VWS V14.01,2013-02-12 23:36:00,
2013-02-12 16:41:00,40.6,18.8,26.82,North,0,15.6,15.6,41,0.00,,,0.00,VWS V14.01,2013-02-12 23:41:00,
2013-02-12 16:47:00,40.2,18.4,26.82,North,0,8.9,8.9,41,0.00,,,0.00,VWS V14.01,2013-02-12 23:47:00,
2013-02-12 16:52:00,39.9,18.7,26.82,North,0,9.8,9.8,42,0.00,,,0.00,VWS V14.01,2013-02-12 23:52:00,
2013-02-12 16:57:00,39.9,18.7,26.82,NNW,338,11.1,11.1,42,0.00,,,0.00,VWS V14.01,2013-02-12 23:57:00,
2013-02-12 17:02:00,39.7,18.5,26.82,NW,315,12.0,12.0,42,0.00,,,0.00,VWS V14.01,2013-02-13 00:02:00,
2013-02-12 17:07:00,39.3,18.1,26.83,North,0,7.3,13.4,42,0.00,,,0.00,VWS V14.01,2013-02-13 00:07:00,
2013-02-12 17:12:00,39.3,18.1,26.83,NW,315,5.5,13.4,42,0.00,,,0.00,VWS V14.01,2013-02-13 00:12:00,
2013-02-12 17:17:00,38.8,18.2,26.83,NNW,338,7.6,7.6,43,0.00,,,0.00,VWS V14.01,2013-02-13 00:17:00,
2013-02-12 17:22:00,38.4,17.9,26.83,NNW,338,6.4,11.1,43,0.00,,,0.00,VWS V14.01,2013-02-13 00:22:00,
2013-02-12 17:27:00,38.3,17.8,26.83,NNE,22,0.0,11.1,43,0.00,,,0.00,VWS V14.01,2013-02-13 00:27:00,
2013-02-12 17:32:00,37.9,18.0,26.83,North,0,6.9,6.9,44,0.00,,,0.00,VWS V14.01,2013-02-13 00:32:00,
2013-02-12 17:37:00,37.9,18.0,26.84,WNW,292,4.4,6.9,44,0.00,,,0.00,VWS V14.01,2013-02-13 00:37:00,
2013-02-12 17:42:00,37.7,17.8,26.84,NNW,338,4.0,6.9,44,0.00,,,0.00,VWS V14.01,2013-02-13 00:42:00,
2013-02-12 17:47:00,37.5,17.6,26.83,NNW,338,2.0,3.3,44,0.00,,,0.00,VWS V14.01,2013-02-13 00:47:00,
2013-02-12 17:52:00,37.5,18.1,26.84,WNW,292,0.0,4.0,45,0.00,,,0.00,VWS V14.01,2013-02-13 00:52:00,
2013-02-12 17:57:00,37.4,18.0,26.84,WNW,292,7.8,7.8,45,0.00,,,0.00,VWS V14.01,2013-02-13 00:57:00,
2013-02-12 18:02:00,37.4,18.0,26.84,North,0,2.0,3.8,45,0.00,,,0.00,VWS V14.01,2013-02-13 01:02:00,
2013-02-12 18:07:00,37.4,18.0,26.84,West,270,0.0,6.7,45,0.00,,,0.00,VWS V14.01,2013-02-13 01:07:00,
2013-02-12 18:12:00,37.2,17.8,26.84,WNW,292,5.5,6.7,45,0.00,,,0.00,VWS V14.01,2013-02-13 01:12:00,
2013-02-12 18:17:00,37.2,18.3,26.84,WNW,292,2.4,2.4,46,0.00,,,0.00,VWS V14.01,2013-02-13 01:17:00,
2013-02-12 18:22:00,37.2,18.3,26.84,West,270,0.0,2.4,46,0.00,,,0.00,VWS V14.01,2013-02-13 01:22:00,
2013-02-12 18:27:00,37.0,18.2,26.84,West,270,0.0,2.4,46,0.00,,,0.00,VWS V14.01,2013-02-13 01:27:00,
2013-02-12 18:32:00,37.0,18.7,26.84,West,270,0.0,3.8,47,0.00,,,0.00,VWS V14.01,2013-02-13 01:32:00,
2013-02-12 18:37:00,36.8,18.5,26.84,West,270,3.8,3.8,47,0.00,,,0.00,VWS V14.01,2013-02-13 01:37:00,
2013-02-12 18:42:00,36.6,18.3,26.84,West,270,3.8,3.8,47,0.00,,,0.00,VWS V14.01,2013-02-13 01:42:00,
2013-02-12 18:47:00,36.6,18.3,26.85,West,270,0.0,2.0,47,0.00,,,0.00,VWS V14.01,2013-02-13 01:47:00,
2013-02-12 18:52:00,36.5,18.2,26.84,West,270,0.0,2.0,47,0.00,,,0.00,VWS V14.01,2013-02-13 01:52:00,
2013-02-12 18:57:00,36.3,18.5,26.84,WSW,248,2.2,2.2,48,0.00,,,0.00,VWS V14.01,2013-02-13 01:57:00,
2013-02-12 19:02:00,36.3,18.5,26.84,West,270,0.0,0.0,48,0.00,,,0.00,VWS V14.01,2013-02-13 02:02:00,
2013-02-12 19:07:00,35.9,18.1,26.84,West,270,3.3,3.3,48,0.00,,,0.00,VWS V14.01,2013-02-13 02:07:00,
2013-02-12 19:13:00,35.7,18.0,26.84,WSW,248,2.4,3.3,48,0.00,,,0.00,VWS V14.01,2013-02-13 02:13:00,
2013-02-12 19:18:00,35.6,17.9,26.84,WSW,248,0.6,1.7,48,0.00,,,0.00,VWS V14.01,2013-02-13 02:18:00,
2013-02-12 19:23:00,35.4,17.7,26.83,WSW,248,2.9,2.9,48,0.00,,,0.00,VWS V14.01,2013-02-13 02:23:00,
2013-02-12 19:28:00,35.2,17.5,26.83,SW,225,2.2,2.9,48,0.00,,,0.00,VWS V14.01,2013-02-13 02:28:00,
2013-02-12 19:33:00,35.2,17.5,26.83,WSW,248,2.4,2.4,48,0.00,,,0.00,VWS V14.01,2013-02-13 02:33:00,
2013-02-12 19:38:00,34.8,17.1,26.83,WSW,248,0.8,2.4,48,0.00,,,0.00,VWS V14.01,2013-02-13 02:38:00,
2013-02-12 19:43:00,34.7,17.0,26.83,WSW,248,1.5,2.4,48,0.00,,,0.00,VWS V14.01,2013-02-13 02:43:00,
2013-02-12 19:48:00,34.7,17.0,26.83,West,270,0.0,0.0,48,0.00,,,0.00,VWS V14.01,2013-02-13 02:48:00,
2013-02-12 19:53:00,34.3,16.7,26.84,West,270,0.0,0.0,48,0.00,,,0.00,VWS V14.01,2013-02-13 02:53:00,
2013-02-12 19:58:00,34.1,17.0,26.83,West,270,0.0,0.0,49,0.00,,,0.00,VWS V14.01,2013-02-13 02:58:00,
2013-02-12 20:03:00,33.8,16.7,26.84,West,270,0.0,0.0,49,0.00,,,0.00,VWS V14.01,2013-02-13 03:03:00,
2013-02-12 20:08:00,33.4,16.8,26.83,West,270,0.0,0.0,50,0.00,,,0.00,VWS V14.01,2013-02-13 03:08:00,
2013-02-12 20:13:00,33.0,16.4,26.83,West,270,0.0,0.0,50,0.00,,,0.00,VWS V14.01,2013-02-13 03:13:00,
2013-02-12 20:18:00,32.9,16.8,26.83,West,270,0.0,0.0,51,0.00,,,0.00,VWS V14.01,2013-02-13 03:18:00,
2013-02-12 20:23:00,32.7,16.6,26.83,West,270,0.0,0.0,51,0.00,,,0.00,VWS V14.01,2013-02-13 03:23:00,
2013-02-12 20:28:00,32.9,17.2,26.83,West,270,0.0,0.0,52,0.00,,,0.00,VWS V14.01,2013-02-13 03:28:00,
2013-02-12 20:33:00,32.7,17.0,26.83,West,270,0.0,0.0,52,0.00,,,0.00,VWS V14.01,2013-02-13 03:33:00,
2013-02-12 20:38:00,32.7,17.0,26.83,West,270,0.0,0.0,52,0.00,,,0.00,VWS V14.01,2013-02-13 03:38:00,
2013-02-12 20:43:00,32.5,16.9,26.83,West,270,0.0,0.0,52,0.00,,,0.00,VWS V14.01,2013-02-13 03:43:00,
2013-02-12 20:48:00,32.5,17.3,26.83,West,270,0.0,0.0,53,0.00,,,0.00,VWS V14.01,2013-02-13 03:48:00,
2013-02-12 20:53:00,32.3,16.7,26.83,West,270,0.0,0.0,52,0.00,,,0.00,VWS V14.01,2013-02-13 03:53:00,
2013-02-12 20:58:00,32.3,17.1,26.83,West,270,0.0,0.0,53,0.00,,,0.00,VWS V14.01,2013-02-13 03:58:00,
2013-02-12 21:03:00,32.3,17.1,26.83,West,270,0.0,0.0,53,0.00,,,0.00,VWS V14.01,2013-02-13 04:03:00,
2013-02-12 21:08:00,32.3,17.5,26.83,West,270,0.0,0.0,54,0.00,,,0.00,VWS V14.01,2013-02-13 04:08:00,
2013-02-12 21:13:00,32.3,17.5,26.83,West,270,0.0,0.0,54,0.00,,,0.00,VWS V14.01,2013-02-13 04:13:00,
2013-02-12 21:18:00,32.5,18.1,26.82,WSW,248,0.0,0.0,55,0.00,,,0.00,VWS V14.01,2013-02-13 04:18:00,
2013-02-12 21:23:00,32.7,18.8,26.82,WSW,248,0.0,0.0,56,0.00,,,0.00,VWS V14.01,2013-02-13 04:23:00,
2013-02-12 21:28:00,33.0,19.0,26.83,West,270,0.0,0.0,56,0.00,,,0.00,VWS V14.01,2013-02-13 04:28:00,
2013-02-12 21:34:00,33.6,19.6,26.82,West,270,0.0,0.0,56,0.00,,,0.00,VWS V14.01,2013-02-13 04:34:00,
2013-02-12 21:39:00,33.8,19.8,26.82,West,270,0.0,0.0,56,0.00,,,0.00,VWS V14.01,2013-02-13 04:39:00,
2013-02-12 21:44:00,33.9,19.5,26.82,WNW,292,0.0,0.0,55,0.00,,,0.00,VWS V14.01,2013-02-13 04:44:00,
2013-02-12 21:49:00,34.1,19.6,26.82,West,270,0.0,0.0,55,0.00,,,0.00,VWS V14.01,2013-02-13 04:49:00,
2013-02-12 21:54:00,34.3,19.8,26.81,West,270,0.0,0.0,55,0.00,,,0.00,VWS V14.01,2013-02-13 04:54:00,
2013-02-12 21:59:00,34.7,20.2,26.81,West,270,1.7,1.7,55,0.00,,,0.00,VWS V14.01,2013-02-13 04:59:00,
2013-02-12 22:00:00,34.7,20.2,26.81,West,270,2.4,2.4,55,0.00,,,0.00,VWS V14.01,2013-02-13 05:00:00,
2013-02-12 22:01:00,34.7,20.2,26.81,West,270,2.4,2.4,55,0.00,,,0.00,VWS V14.01,2013-02-13 05:01:00,
2013-02-12 22:03:00,34.7,20.2,26.81,West,270,0.0,2.4,55,0.00,,,0.00,VWS V14.01,2013-02-13 05:03:00,
2013-02-12 22:08:00,35.0,20.5,26.81,West,270,0.0,2.4,55,0.00,,,0.00,VWS V14.01,2013-02-13 05:08:00,
2013-02-12 22:13:00,35.2,20.2,26.81,WSW,248,1.3,2.4,54,0.00,,,0.00,VWS V14.01,2013-02-13 05:13:00,
2013-02-12 22:18:00,35.2,20.2,26.80,West,270,0.0,0.0,54,0.00,,,0.00,VWS V14.01,2013-02-13 05:18:00,
2013-02-12 22:23:00,35.2,20.2,26.80,West,270,0.0,0.0,54,0.00,,,0.00,VWS V14.01,2013-02-13 05:23:00,
2013-02-12 22:28:00,35.4,20.4,26.80,West,270,0.0,0.0,54,0.00,,,0.00,VWS V14.01,2013-02-13 05:28:00,
2013-02-12 22:33:00,35.4,20.4,26.80,WSW,248,0.0,0.0,54,0.00,,,0.00,VWS V14.01,2013-02-13 05:33:00,
2013-02-12 22:38:00,35.4,20.4,26.79,WSW,248,0.0,0.0,54,0.00,,,0.00,VWS V14.01,2013-02-13 05:38:00,
2013-02-12 22:43:00,35.4,20.4,26.79,SW,225,0.0,0.0,54,0.00,,,0.00,VWS V14.01,2013-02-13 05:43:00,
2013-02-12 22:48:00,35.2,20.2,26.79,SSW,202,0.0,0.0,54,0.00,,,0.00,VWS V14.01,2013-02-13 05:48:00,
2013-02-12 22:53:00,35.2,20.2,26.79,SW,225,0.0,0.0,54,0.00,,,0.00,VWS V14.01,2013-02-13 05:53:00,
2013-02-12 22:58:00,35.0,20.0,26.78,SW,225,0.0,0.0,54,0.00,,,0.00,VWS V14.01,2013-02-13 05:58:00,
2013-02-12 23:03:00,34.8,19.9,26.78,SW,225,0.0,0.0,54,0.00,,,0.00,VWS V14.01,2013-02-13 06:03:00,
2013-02-12 23:08:00,34.7,19.8,26.78,SW,225,0.0,0.0,54,0.00,,,0.00,VWS V14.01,2013-02-13 06:08:00,
2013-02-12 23:13:00,34.5,19.6,26.78,SW,225,0.0,0.0,54,0.00,,,0.00,VWS V14.01,2013-02-13 06:13:00,
2013-02-12 23:18:00,34.3,19.4,26.78,West,270,0.0,0.0,54,0.00,,,0.00,VWS V14.01,2013-02-13 06:18:00,
2013-02-12 23:23:00,34.3,19.8,26.78,West,270,0.0,0.0,55,0.00,,,0.00,VWS V14.01,2013-02-13 06:23:00,
2013-02-12 23:28:00,34.1,19.6,26.78,WSW,248,0.0,0.0,55,0.00,,,0.00,VWS V14.01,2013-02-13 06:28:00,
2013-02-12 23:33:00,33.9,19.5,26.78,West,270,0.0,0.0,55,0.00,,,0.00,VWS V14.01,2013-02-13 06:33:00,
2013-02-12 23:38:00,33.6,19.2,26.78,West,270,0.0,0.0,55,0.00,,,0.00,VWS V14.01,2013-02-13 06:38:00,
2013-02-12 23:43:00,33.4,19.0,26.78,West,270,0.0,0.0,55,0.00,,,0.00,VWS V14.01,2013-02-13 06:43:00,
2013-02-12 23:49:00,32.9,18.5,26.78,West,270,0.0,0.0,55,0.00,,,0.00,VWS V14.01,2013-02-13 06:49:00,
2013-02-12 23:54:00,32.5,18.6,26.78,WSW,248,0.0,0.0,56,0.00,,,0.00,VWS V14.01,2013-02-13 06:54:00,
2013-02-12 23:59:00,32.3,18.4,26.78,West,270,0.0,0.0,56,0.00,,,0.00,VWS V14.01,2013-02-13 06:59:00,